Time;durP1;ratioP1;P1;durP2;ratioP2;P2;SDS_P1;SDS_P2;PMS_P1;PMS_P2;Temp;Humidity;BMP_temperature;BMP_pressure;BME280_temperature;BME280_humidity;BME280_pressure;Samples;Min_cycle;Max_cycle;Signal;HPM_P1;HPM_P2
2022/01/25 00:10:42;;;;;;;35.30;13.00;;;;;;;4.09;88.17;103279.22;5002966;28;20083;-48
2022/01/25 00:24:20;;;;;;;33.17;13.10;;;;;;;4.05;88.31;103261.09;5001499;28;20205;-48
2022/01/25 00:30:25;;;;;;;39.47;14.68;;;;;;;4.08;88.37;103263.47;5002479;28;20095;-48
2022/01/25 00:32:16;;;;;;;35.90;12.93;;;;;;;4.06;88.30;103258.28;5010725;28;20773;-47
2022/01/25 00:34:42;;;;;;;34.65;13.77;;;;;;;4.12;87.94;103256.88;5008258;28;20088;-48
2022/01/25 00:37:08;;;;;;;42.15;14.23;;;;;;;4.11;88.25;103255.19;5007263;28;20040;-48
2022/01/25 00:39:37;;;;;;;39.78;13.27;;;;;;;4.14;87.92;103260.25;5004810;28;20464;-47
2022/01/25 00:42:04;;;;;;;37.60;15.10;;;;;;;4.09;87.92;103258.00;5007681;28;20164;-47
2022/01/25 00:44:35;;;;;;;39.03;13.60;;;;;;;4.08;87.81;103252.84;5007449;28;20038;-49
2022/01/25 00:47:01;;;;;;;38.10;13.95;;;;;;;4.03;87.90;103247.13;5005661;28;20032;-49
2022/01/25 00:49:28;;;;;;;32.20;13.75;;;;;;;4.08;87.87;103231.63;5008547;28;20498;-48
2022/01/25 00:56:48;;;;;;;35.75;12.88;;;;;;;4.02;87.30;103235.69;5005126;28;20032;-47
2022/01/25 00:59:30;;;;;;;30.73;13.25;;;;;;;4.01;87.26;103243.78;5008761;28;20436;-48
2022/01/25 01:01:58;;;;;;;31.60;12.90;;;;;;;3.97;87.17;103242.41;5003635;28;20022;-48
2022/01/25 01:04:24;;;;;;;31.30;12.05;;;;;;;4.01;87.52;103239.31;5007845;28;20372;-48
2022/01/25 01:06:51;;;;;;;28.30;11.93;;;;;;;3.96;87.28;103241.59;5007707;28;20049;-47
2022/01/25 01:09:20;;;;;;;34.13;12.55;;;;;;;3.94;87.17;103241.69;5006863;28;20053;-50
2022/01/25 01:12:04;;;;;;;29.95;12.57;;;;;;;3.94;86.74;103238.22;5007297;28;20097;-47
2022/01/25 01:17:37;;;;;;;29.83;12.30;;;;;;;3.89;86.78;103233.34;5002116;28;20099;-47
2022/01/25 01:43:59;;;;;;;32.72;12.90;;;;;;;3.90;86.64;103208.50;5004307;28;20040;-47
2022/01/25 01:48:58;;;;;;;34.17;12.50;;;;;;;3.96;86.35;103195.66;5006991;28;20403;-47
2022/01/25 01:51:32;;;;;;;32.00;12.05;;;;;;;3.93;86.38;103213.50;5006405;28;20037;-50
2022/01/25 01:54:11;;;;;;;34.78;12.88;;;;;;;3.83;86.27;103198.63;5006459;28;20264;-48
2022/01/25 01:56:38;;;;;;;33.65;13.27;;;;;;;3.88;86.79;103194.53;5007118;28;20316;-47
2022/01/25 01:59:09;;;;;;;31.67;13.18;;;;;;;3.82;86.36;103203.09;5004692;28;20345;-48
2022/01/25 02:01:37;;;;;;;33.58;13.50;;;;;;;3.88;86.70;103191.88;5007782;28;20056;-48
2022/01/25 02:04:05;;;;;;;31.55;12.50;;;;;;;3.97;86.63;103197.31;5004666;28;20044;-48
2022/01/25 02:06:30;;;;;;;33.15;13.43;;;;;;;3.98;86.49;103199.00;5006415;28;20064;-48
2022/01/25 02:08:56;;;;;;;36.40;12.80;;;;;;;3.99;86.21;103192.72;5006286;28;20053;-48
2022/01/25 02:11:22;;;;;;;33.85;13.07;;;;;;;3.99;86.30;103204.16;5007167;28;20574;-47
2022/01/25 02:13:48;;;;;;;33.67;12.60;;;;;;;3.98;86.46;103191.88;5006493;28;20045;-49
2022/01/25 02:16:33;;;;;;;36.13;13.68;;;;;;;4.00;86.28;103194.38;5004729;28;20021;-49
2022/01/25 02:24:32;;;;;;;33.73;12.87;;;;;;;3.91;86.68;103185.44;5002945;28;20129;-49
2022/01/25 02:26:58;;;;;;;31.83;13.82;;;;;;;3.98;86.33;103183.09;5005105;28;20276;-52
2022/01/25 02:29:24;;;;;;;33.53;13.18;;;;;;;3.93;86.43;103189.63;5007592;28;20708;-50
2022/01/25 02:31:51;;;;;;;35.08;13.60;;;;;;;3.90;86.72;103181.13;5006786;28;20030;-47
2022/01/25 02:34:17;;;;;;;30.73;12.95;;;;;;;3.96;86.66;103187.69;5006059;28;20025;-48
2022/01/25 02:36:42;;;;;;;35.05;13.30;;;;;;;3.85;86.88;103178.91;5003282;28;20476;-47
2022/01/25 02:39:08;;;;;;;31.73;12.63;;;;;;;3.93;86.70;103186.16;5004822;28;20021;-47
2022/01/25 02:41:35;;;;;;;34.08;12.48;;;;;;;3.90;87.18;103175.81;5005447;28;20030;-49
2022/01/25 02:44:00;;;;;;;32.45;13.45;;;;;;;3.89;87.05;103171.50;5003703;28;20030;-48
2022/01/25 02:49:03;;;;;;;33.20;13.15;;;;;;;3.90;87.20;103166.06;5005345;28;20073;-49
2022/01/25 02:51:33;;;;;;;34.95;13.27;;;;;;;3.86;87.33;103164.69;5006707;28;20537;-50
2022/01/25 02:53:58;;;;;;;35.25;13.18;;;;;;;3.86;87.47;103166.50;5003355;28;20034;-50
2022/01/25 02:56:26;;;;;;;38.15;14.07;;;;;;;3.84;87.61;103164.00;5006328;28;20185;-48
2022/01/25 02:58:51;;;;;;;33.40;13.88;;;;;;;3.87;87.51;103165.50;5006097;28;20038;-49
2022/01/25 03:01:18;;;;;;;34.33;14.48;;;;;;;3.79;87.99;103155.63;5004043;28;20030;-48
2022/01/25 03:03:44;;;;;;;33.80;12.85;;;;;;;3.76;87.62;103145.28;5003051;28;20025;-47
2022/01/25 03:06:15;;;;;;;32.72;12.40;;;;;;;3.80;87.99;103159.13;5003491;28;21274;-48
2022/01/25 03:08:41;;;;;;;40.03;13.85;;;;;;;3.82;87.59;103163.31;5004565;28;20267;-47
2022/01/25 03:11:06;;;;;;;33.25;13.60;;;;;;;3.89;87.48;103167.03;5020732;28;20029;-50
2022/01/25 03:13:37;;;;;;;31.95;14.02;;;;;;;3.86;87.17;103159.38;5006833;28;20079;-49
2022/01/25 03:16:07;;;;;;;35.40;14.43;;;;;;;3.87;87.54;103158.38;5000519;28;20105;-48
2022/01/25 03:21:16;;;;;;;36.50;14.27;;;;;;;3.84;87.80;103145.44;5002662;28;20104;-47
2022/01/25 03:23:42;;;;;;;37.92;14.35;;;;;;;3.91;87.20;103138.53;5003611;28;20036;-48
2022/01/25 03:26:08;;;;;;;33.67;13.13;;;;;;;3.81;87.54;103142.25;5005364;28;20278;-47
2022/01/25 03:28:33;;;;;;;34.75;14.20;;;;;;;3.88;87.49;103144.16;5005279;28;20534;-48
2022/01/25 03:30:59;;;;;;;32.67;12.75;;;;;;;3.74;87.68;103136.66;5006136;28;20109;-47
2022/01/25 03:33:25;;;;;;;33.55;12.98;;;;;;;3.86;87.71;103127.56;5003198;28;20456;-47
2022/01/25 03:35:51;;;;;;;35.15;13.85;;;;;;;3.88;87.29;103128.22;5020133;28;20084;-48
2022/01/25 03:38:17;;;;;;;40.25;13.32;;;;;;;3.88;87.55;103120.28;5005488;28;20022;-48
2022/01/25 03:40:44;;;;;;;35.08;13.55;;;;;;;3.85;87.41;103119.75;5003455;28;20029;-48
2022/01/25 03:43:10;;;;;;;34.15;13.77;;;;;;;3.84;87.42;103126.03;5003552;28;20053;-48
2022/01/25 03:45:38;;;;;;;36.53;13.23;;;;;;;3.85;87.41;103127.69;5005161;28;20041;-48
2022/01/25 03:50:40;;;;;;;35.10;12.98;;;;;;;3.86;87.41;103132.84;5003134;28;20510;-48
2022/01/25 03:53:06;;;;;;;34.70;13.40;;;;;;;3.85;87.66;103131.19;5005496;28;20059;-47
2022/01/25 03:55:32;;;;;;;35.33;13.70;;;;;;;3.73;87.95;103129.69;5003402;28;20029;-49
2022/01/25 03:57:58;;;;;;;40.13;13.20;;;;;;;3.76;87.87;103131.19;5000481;28;20029;-49
2022/01/25 04:00:24;;;;;;;32.60;13.60;;;;;;;3.81;87.60;103129.81;5001284;28;20660;-48
2022/01/25 04:03:02;;;;;;;37.00;12.63;;;;;;;3.85;87.85;103139.13;5009466;28;20463;-47
2022/01/25 04:05:48;;;;;;;35.20;14.48;;;;;;;3.68;87.89;103137.25;5000803;28;20037;-47
2022/01/25 04:08:15;;;;;;;44.05;13.93;;;;;;;3.81;87.94;103148.38;5002064;28;20104;-48
2022/01/25 04:10:41;;;;;;;33.40;14.05;;;;;;;3.77;88.03;103151.44;4999099;28;20609;-51
2022/01/25 04:13:07;;;;;;;32.85;13.02;;;;;;;3.91;87.50;103149.16;5004433;28;20018;-49
2022/01/25 04:15:34;;;;;;;34.53;14.02;;;;;;;3.90;87.13;103144.00;5004836;28;20392;-48
2022/01/25 04:20:55;;;;;;;38.63;13.93;;;;;;;3.86;87.69;103143.47;5005687;28;20044;-47
2022/01/25 04:26:04;;;;;;;32.78;12.40;;;;;;;3.87;87.35;103153.09;5004451;28;20036;-49
2022/01/25 04:28:30;;;;;;;33.85;13.43;;;;;;;3.82;87.70;103144.75;5005772;28;20026;-47
2022/01/25 04:30:55;;;;;;;37.38;13.70;;;;;;;3.80;87.85;103141.41;5003817;28;20030;-49
2022/01/25 04:33:25;;;;;;;34.33;14.15;;;;;;;3.79;87.92;103144.19;4997439;28;20022;-48
2022/01/25 04:36:10;;;;;;;34.85;13.13;;;;;;;3.74;88.62;103143.78;5000404;28;20030;-47
2022/01/25 04:49:38;;;;;;;38.10;15.15;;;;;;;3.66;88.88;103101.25;5001653;28;20040;-48
2022/01/25 04:52:11;;;;;;;34.85;12.90;;;;;;;3.76;88.64;103102.03;5016626;28;20388;-48
2022/01/25 05:00:18;;;;;;;36.92;13.07;;;;;;;3.71;88.67;103107.78;4998444;28;20498;-48
2022/01/25 05:05:16;;;;;;;31.75;12.43;;;;;;;3.76;88.21;103094.91;5004863;28;20483;-47
2022/01/25 05:07:59;;;;;;;32.30;12.95;;;;;;;3.69;88.95;103103.63;5003783;28;20083;-48
2022/01/25 05:10:24;;;;;;;30.20;13.13;;;;;;;3.68;89.04;103097.47;5004772;28;20113;-47
2022/01/25 05:12:55;;;;;;;31.85;12.40;;;;;;;3.71;88.70;103088.38;5002917;28;20109;-51
2022/01/25 05:23:11;;;;;;;29.33;11.38;;;;;;;3.75;88.51;103089.75;5006425;28;20052;-48
2022/01/25 05:25:37;;;;;;;33.08;12.55;;;;;;;3.77;88.77;103098.41;5004178;28;20527;-48
2022/01/25 05:28:02;;;;;;;34.85;12.95;;;;;;;3.79;88.06;103089.34;5007912;28;20052;-47
2022/01/25 05:30:28;;;;;;;33.45;12.80;;;;;;;3.75;88.42;103095.06;5004795;28;20029;-47
2022/01/25 05:32:53;;;;;;;30.17;12.52;;;;;;;3.77;88.07;103093.09;5002359;28;20021;-48
2022/01/25 05:35:19;;;;;;;35.15;12.77;;;;;;;3.78;88.17;103094.81;5004905;28;20101;-48
2022/01/25 05:37:44;;;;;;;36.00;12.35;;;;;;;3.80;88.27;103093.66;5009685;28;20036;-47
2022/01/25 05:40:15;;;;;;;31.08;11.80;;;;;;;3.76;88.11;103100.22;5004019;28;20033;-49
2022/01/25 05:42:51;;;;;;;33.95;12.80;;;;;;;3.76;88.15;103100.22;5002404;28;20030;-48
2022/01/25 05:45:38;;;;;;;32.53;12.90;;;;;;;3.78;88.17;103095.63;5005047;28;20368;-50
2022/01/25 05:48:04;;;;;;;29.75;10.65;;;;;;;3.77;88.01;103095.75;5008535;28;20152;-47
2022/01/25 05:50:29;;;;;;;26.00;11.25;;;;;;;3.80;88.25;103098.97;5008718;28;20295;-47
2022/01/25 05:52:55;;;;;;;28.95;11.45;;;;;;;3.69;88.65;103100.97;5006369;28;20026;-48
2022/01/25 05:55:21;;;;;;;31.55;12.18;;;;;;;3.75;88.49;103101.19;5005636;28;20399;-47
2022/01/25 05:57:46;;;;;;;32.20;12.52;;;;;;;3.72;88.55;103095.34;5006527;28;20415;-49
2022/01/25 06:00:13;;;;;;;27.85;12.13;;;;;;;3.78;88.25;103094.81;5008238;28;20447;-49
2022/01/25 06:02:38;;;;;;;24.63;10.02;;;;;;;3.77;88.65;103101.91;5007217;28;20065;-47
2022/01/25 06:05:05;;;;;;;33.47;11.98;;;;;;;3.67;89.00;103108.22;5004979;28;20105;-48
2022/01/25 06:07:30;;;;;;;35.47;12.68;;;;;;;3.74;88.71;103111.97;5005749;28;20339;-47
2022/01/25 06:09:56;;;;;;;32.08;12.27;;;;;;;3.70;88.78;103114.06;5004403;28;20029;-47
2022/01/25 06:12:22;;;;;;;31.88;13.23;;;;;;;3.70;89.12;103111.41;5006606;28;20032;-47
2022/01/25 06:14:47;;;;;;;32.97;12.68;;;;;;;3.69;89.06;103107.09;5003739;28;20060;-49
2022/01/25 06:17:13;;;;;;;32.85;12.18;;;;;;;3.68;89.44;103110.72;5007099;28;20025;-50
2022/01/25 06:19:39;;;;;;;34.08;12.07;;;;;;;3.73;89.12;103113.78;5001940;28;20575;-49
2022/01/25 06:22:04;;;;;;;30.27;12.38;;;;;;;3.69;89.19;103116.88;5008497;28;20038;-49
2022/01/25 06:24:30;;;;;;;28.23;11.73;;;;;;;3.67;89.24;103111.72;5007998;28;21503;-48
2022/01/25 06:26:55;;;;;;;31.77;13.15;;;;;;;3.59;89.30;103111.59;5001340;28;20036;-49
2022/01/25 06:29:21;;;;;;;32.92;12.18;;;;;;;3.65;90.02;103111.03;5008918;28;20032;-48
2022/01/25 06:31:49;;;;;;;29.52;11.65;;;;;;;3.66;89.43;103115.34;5002919;28;20034;-48
2022/01/25 06:34:18;;;;;;;29.52;11.40;;;;;;;3.69;89.43;103112.41;5008491;28;20040;-48
2022/01/25 06:36:46;;;;;;;26.55;11.48;;;;;;;3.66;90.09;103114.50;5008875;28;20377;-49
2022/01/25 06:39:11;;;;;;;32.00;12.48;;;;;;;3.63;90.14;103113.81;5007586;28;20391;-47
2022/01/25 06:41:38;;;;;;;32.17;12.38;;;;;;;3.70;89.98;103116.72;5009096;28;20026;-48
2022/01/25 06:44:04;;;;;;;28.27;11.93;;;;;;;3.72;89.79;103119.22;5002610;28;20109;-47
2022/01/25 06:46:29;;;;;;;30.48;11.57;;;;;;;3.68;89.83;103113.38;5002515;28;20308;-48
2022/01/25 06:48:55;;;;;;;28.92;11.07;;;;;;;3.75;89.72;103109.16;5008755;28;20464;-50
2022/01/25 06:51:20;;;;;;;28.80;11.73;;;;;;;3.74;89.07;103118.09;5002500;28;20482;-49
2022/01/25 06:53:46;;;;;;;33.35;12.50;;;;;;;3.74;89.76;103115.44;5008889;28;20488;-48
2022/01/25 06:56:11;;;;;;;28.30;11.65;;;;;;;3.72;89.59;103111.28;5008008;28;20479;-47
2022/01/25 06:58:40;;;;;;;26.95;11.35;;;;;;;3.70;89.74;103105.28;5019089;28;20647;-48
2022/01/25 07:01:05;;;;;;;28.70;12.82;;;;;;;3.71;89.85;103113.09;5007020;28;20387;-47
2022/01/25 07:03:31;;;;;;;32.70;12.73;;;;;;;3.70;90.18;103103.47;5003488;28;20049;-50
2022/01/25 07:05:57;;;;;;;37.25;12.50;;;;;;;3.73;90.20;103107.63;5008314;28;20104;-50
2022/01/25 07:08:22;;;;;;;28.77;11.27;;;;;;;3.79;89.49;103105.25;5007412;28;20372;-47
2022/01/25 07:10:48;;;;;;;34.92;12.55;;;;;;;3.74;90.26;103111.97;5008348;28;20049;-48
2022/01/25 07:13:13;;;;;;;28.77;12.25;;;;;;;3.70;90.27;103106.13;5007809;28;20025;-47
2022/01/25 07:15:39;;;;;;;29.20;11.20;;;;;;;3.73;90.52;103118.25;5002367;28;20034;-48
2022/01/25 07:18:04;;;;;;;31.45;12.05;;;;;;;3.74;90.26;103110.13;4999578;28;20034;-48
2022/01/25 07:20:30;;;;;;;32.30;12.10;;;;;;;3.71;90.55;103105.13;5005939;28;20480;-47
2022/01/25 07:22:56;;;;;;;35.72;13.50;;;;;;;3.68;90.77;103110.72;5007048;28;20029;-49
2022/01/25 07:25:21;;;;;;;34.75;12.35;;;;;;;3.69;90.87;103114.22;5007232;28;20022;-50
2022/01/25 07:27:47;;;;;;;30.48;13.15;;;;;;;3.61;91.86;103122.91;5002215;28;20430;-50
2022/01/25 07:30:14;;;;;;;30.65;12.02;;;;;;;3.69;91.34;103117.69;5006409;28;20026;-48
2022/01/25 07:32:39;;;;;;;32.60;12.93;;;;;;;3.74;90.72;103120.75;5003652;28;20030;-47
2022/01/25 07:35:05;;;;;;;37.45;12.52;;;;;;;3.64;91.66;103118.16;5000532;28;20023;-50
2022/01/25 07:37:31;;;;;;;31.30;11.50;;;;;;;3.62;92.19;103117.47;5002042;28;20065;-48
2022/01/25 07:39:57;;;;;;;30.85;12.27;;;;;;;3.66;91.83;103118.00;5007904;28;20054;-49
2022/01/25 07:42:23;;;;;;;35.05;13.65;;;;;;;3.62;92.05;103112.16;5012773;28;20029;-48
2022/01/25 07:44:49;;;;;;;40.65;14.68;;;;;;;3.58;92.79;103121.34;5006251;28;20026;-48
2022/01/25 07:47:15;;;;;;;32.47;12.20;;;;;;;3.61;92.16;103125.56;5007949;28;20080;-47
2022/01/25 07:49:40;;;;;;;31.88;11.50;;;;;;;3.64;91.95;103125.25;5005805;28;20447;-48
2022/01/25 07:52:07;;;;;;;33.20;13.13;;;;;;;3.68;91.81;103117.84;5003812;28;20487;-47
2022/01/25 07:54:33;;;;;;;36.10;13.65;;;;;;;3.61;92.07;103121.09;5002830;28;20084;-48
2022/01/25 07:56:58;;;;;;;32.47;12.48;;;;;;;3.68;91.68;103124.00;5006034;28;20025;-48
2022/01/25 07:59:24;;;;;;;30.42;13.15;;;;;;;3.67;92.26;103132.09;5003494;28;20484;-48
2022/01/25 08:01:51;;;;;;;34.78;12.25;;;;;;;3.67;91.96;103129.44;5004814;28;20149;-48
2022/01/25 08:04:17;;;;;;;33.22;13.98;;;;;;;3.70;91.99;103127.31;5007192;28;20025;-48
2022/01/25 08:06:43;;;;;;;37.50;13.55;;;;;;;3.67;92.44;103124.97;4999593;28;20024;-47
2022/01/25 08:09:09;;;;;;;32.30;13.15;;;;;;;3.63;92.94;103128.91;5000704;28;20030;-47
2022/01/25 08:11:35;;;;;;;34.25;11.88;;;;;;;3.69;92.67;103133.59;5006494;28;20028;-47
2022/01/25 08:14:16;;;;;;;32.80;13.23;;;;;;;3.74;92.36;103125.22;5002285;28;20499;-48
2022/01/25 08:16:47;;;;;;;31.35;11.88;;;;;;;3.67;93.34;103124.13;4997537;28;20109;-48
2022/01/25 08:19:13;;;;;;;28.73;11.43;;;;;;;3.72;93.17;103122.72;5003073;28;20048;-48
2022/01/25 08:21:42;;;;;;;36.08;13.52;;;;;;;3.76;93.09;103120.59;5005227;28;20034;-47
2022/01/25 08:24:13;;;;;;;26.20;11.40;;;;;;;3.74;92.79;103115.44;4996896;28;20109;-48
2022/01/25 08:26:40;;;;;;;31.83;12.40;;;;;;;3.73;93.27;103111.13;5002692;28;20065;-48
2022/01/25 08:29:06;;;;;;;28.10;12.18;;;;;;;3.74;93.28;103110.13;5001176;28;20022;-47
2022/01/25 08:31:32;;;;;;;32.47;12.48;;;;;;;3.78;92.85;103106.25;5001779;28;20033;-47
2022/01/25 08:33:58;;;;;;;31.15;12.05;;;;;;;3.82;92.64;103114.72;5004214;28;20350;-49
2022/01/25 08:36:24;;;;;;;36.72;13.50;;;;;;;3.74;92.89;103112.78;5004877;28;20175;-47
2022/01/25 08:38:50;;;;;;;27.35;11.98;;;;;;;3.80;93.26;103106.94;5000507;28;20033;-47
2022/01/25 08:41:17;;;;;;;31.75;13.07;;;;;;;3.82;92.77;103104.13;5002889;28;20034;-47
2022/01/25 08:43:43;;;;;;;30.80;11.85;;;;;;;3.82;92.92;103110.25;5004070;28;20034;-50
2022/01/25 08:46:09;;;;;;;29.52;11.10;;;;;;;3.83;92.88;103106.63;5005954;28;20096;-49
2022/01/25 08:48:34;;;;;;;37.80;13.25;;;;;;;3.87;92.54;103108.00;5006644;28;20033;-48
2022/01/25 08:51:01;;;;;;;32.05;11.73;;;;;;;3.85;92.76;103102.00;5000984;28;20084;-47
2022/01/25 08:53:27;;;;;;;28.50;10.98;;;;;;;3.91;92.30;103098.75;5004015;28;20119;-47
2022/01/25 08:55:53;;;;;;;30.70;13.30;;;;;;;3.92;92.60;103103.09;5003500;28;20480;-48
2022/01/25 08:58:18;;;;;;;29.45;12.27;;;;;;;3.93;92.51;103103.91;5004980;28;20025;-48
2022/01/25 09:00:44;;;;;;;29.40;11.25;;;;;;;3.96;92.16;103105.47;5009443;28;20506;-47
2022/01/25 09:03:11;;;;;;;33.20;11.98;;;;;;;4.00;92.29;103106.84;5003755;28;20100;-51
2022/01/25 09:05:37;;;;;;;30.85;12.25;;;;;;;3.99;92.14;103103.34;5002666;28;20029;-50
2022/01/25 09:08:05;;;;;;;32.72;12.38;;;;;;;4.05;91.79;103107.22;5004320;28;20030;-48
2022/01/25 09:10:30;;;;;;;28.27;11.80;;;;;;;4.03;91.72;103102.06;5008939;28;20334;-48
2022/01/25 09:12:56;;;;;;;28.77;12.30;;;;;;;4.01;91.82;103092.59;5006091;28;20044;-47
2022/01/25 09:15:21;;;;;;;29.73;11.52;;;;;;;4.02;92.23;103091.59;5005199;28;20034;-47
2022/01/25 09:17:48;;;;;;;29.85;11.68;;;;;;;3.99;91.89;103097.22;5007520;28;20030;-47
2022/01/25 09:20:14;;;;;;;27.00;10.48;;;;;;;4.04;91.98;103102.91;5005573;28;20034;-51
2022/01/25 09:22:40;;;;;;;29.17;11.07;;;;;;;4.07;91.78;103105.25;5000553;28;20036;-49
2022/01/25 09:25:06;;;;;;;28.27;12.32;;;;;;;4.11;91.83;103103.97;5004296;28;20030;-50
2022/01/25 09:27:31;;;;;;;27.63;10.52;;;;;;;4.08;91.74;103105.09;5012030;28;20036;-48
2022/01/25 09:29:57;;;;;;;27.88;11.00;;;;;;;4.13;91.77;103096.69;5005657;28;20049;-47
2022/01/25 09:32:22;;;;;;;29.92;12.15;;;;;;;4.10;92.14;103100.47;5007687;28;20918;-48
2022/01/25 09:34:48;;;;;;;24.10;10.23;;;;;;;4.18;91.88;103095.28;5008410;28;20029;-47
2022/01/25 09:37:14;;;;;;;28.27;11.80;;;;;;;4.26;91.24;103102.50;5002318;28;20034;-47
2022/01/25 09:39:40;;;;;;;27.33;11.68;;;;;;;4.24;91.30;103102.66;5006053;28;20030;-48
2022/01/25 09:42:09;;;;;;;27.83;10.48;;;;;;;4.23;91.42;103103.63;5004024;28;20100;-47
2022/01/25 09:44:39;;;;;;;27.05;10.98;;;;;;;4.25;91.57;103104.31;5003800;28;20060;-50
2022/01/25 09:47:06;;;;;;;28.52;11.40;;;;;;;4.28;91.22;103099.69;5004970;28;20061;-48
2022/01/25 09:49:33;;;;;;;28.40;10.57;;;;;;;4.31;91.15;103108.22;5007796;28;20060;-48
2022/01/25 09:52:03;;;;;;;25.98;10.55;;;;;;;4.38;90.93;103109.28;5006028;28;20172;-51
2022/01/25 09:54:30;;;;;;;31.70;10.98;;;;;;;4.32;91.23;103107.22;5007091;28;20030;-49
2022/01/25 09:56:56;;;;;;;29.15;11.32;;;;;;;4.38;91.09;103106.63;5001402;28;20493;-49
2022/01/25 09:59:21;;;;;;;22.52;10.15;;;;;;;4.39;90.86;103097.66;5005529;28;20029;-49
2022/01/25 10:01:47;;;;;;;27.33;10.80;;;;;;;4.35;91.08;103101.63;5008880;28;20021;-49
2022/01/25 10:04:41;;;;;;;25.90;9.90;;;;;;;4.34;91.09;103094.63;5005720;28;20030;-48
2022/01/25 10:07:09;;;;;;;22.63;9.30;;;;;;;4.36;91.61;103102.44;5005597;28;20041;-51
2022/01/25 10:09:42;;;;;;;28.20;10.27;;;;;;;4.40;91.54;103102.00;5008216;28;20036;-48
2022/01/25 10:12:23;;;;;;;26.35;10.98;;;;;;;4.38;91.18;103097.81;5023107;28;20025;-48
2022/01/25 10:15:00;;;;;;;27.38;11.07;;;;;;;4.34;91.02;103102.59;5003605;28;20030;-47
2022/01/25 10:17:34;;;;;;;29.42;11.27;;;;;;;4.46;91.00;103106.69;5003106;28;20022;-50
2022/01/25 10:20:00;;;;;;;29.67;12.05;;;;;;;4.46;91.12;103101.38;5002142;28;20026;-47
2022/01/25 10:22:26;;;;;;;30.65;11.48;;;;;;;4.45;91.28;103094.41;5002869;28;20033;-50
2022/01/25 10:24:51;;;;;;;27.60;11.30;;;;;;;4.36;91.67;103094.50;5003853;28;20450;-48
2022/01/25 10:27:57;;;;;;;26.23;10.77;;;;;;;4.40;91.56;103094.03;5006490;28;20033;-47
2022/01/25 10:30:09;;;;;;;25.60;9.57;;;;;;;4.42;91.34;103099.19;5006354;28;20038;-51
2022/01/25 10:32:38;;;;;;;25.17;10.15;;;;;;;4.43;91.08;103093.72;5003553;28;21757;-48
2022/01/25 10:35:13;;;;;;;25.17;10.18;;;;;;;4.39;90.77;103096.84;5000012;28;20040;-49
2022/01/25 10:37:41;;;;;;;26.98;10.65;;;;;;;4.38;91.31;103096.00;5008807;28;20399;-49
2022/01/25 10:40:08;;;;;;;26.52;10.18;;;;;;;4.48;91.17;103091.44;5009459;28;20478;-49
2022/01/25 10:42:34;;;;;;;25.90;10.23;;;;;;;4.51;91.03;103091.16;5006910;28;20038;-48
2022/01/25 10:45:17;;;;;;;27.70;10.15;;;;;;;4.53;91.12;103093.66;5003774;28;20034;-49
2022/01/25 10:47:42;;;;;;;26.40;10.00;;;;;;;4.46;91.03;103089.94;5004640;28;20022;-47
2022/01/25 10:50:31;;;;;;;25.20;10.98;;;;;;;4.49;90.97;103089.66;5003380;28;20036;-47
2022/01/25 10:53:02;;;;;;;25.13;10.57;;;;;;;4.53;91.05;103086.53;4996102;28;20030;-47
2022/01/25 10:55:40;;;;;;;25.30;10.18;;;;;;;4.39;91.57;103080.91;5017921;28;20030;-48
2022/01/25 10:58:07;;;;;;;24.40;10.57;;;;;;;4.53;91.64;103081.22;5002942;28;20040;-51
2022/01/25 11:00:36;;;;;;;26.60;10.75;;;;;;;4.52;91.39;103079.56;5004930;28;20142;-50
2022/01/25 11:03:04;;;;;;;29.10;11.13;;;;;;;4.52;91.18;103073.41;5004216;28;20468;-50
2022/01/25 11:05:37;;;;;;;27.52;10.98;;;;;;;4.59;91.19;103077.13;5001784;28;20042;-49
2022/01/25 11:08:13;;;;;;;25.85;11.30;;;;;;;4.55;91.31;103076.59;5000186;28;20248;-49
2022/01/25 11:10:48;;;;;;;27.50;10.52;;;;;;;4.60;91.22;103072.66;5006931;28;20033;-47
2022/01/25 11:13:33;;;;;;;28.90;10.93;;;;;;;4.63;91.36;103064.38;5001390;28;20155;-47
2022/01/25 11:16:02;;;;;;;27.63;11.40;;;;;;;4.61;91.47;103066.34;5004994;28;20026;-52
2022/01/25 11:18:30;;;;;;;29.75;11.02;;;;;;;4.58;91.70;103072.81;5000992;28;20026;-48
2022/01/25 11:20:56;;;;;;;29.70;11.23;;;;;;;4.57;91.89;103070.31;5000869;28;20500;-50
2022/01/25 11:23:22;;;;;;;27.88;11.05;;;;;;;4.61;91.67;103061.03;5000134;28;20048;-47
2022/01/25 11:25:48;;;;;;;29.95;11.55;;;;;;;4.62;91.41;103066.19;5002526;28;20026;-48
2022/01/25 11:28:15;;;;;;;32.30;11.80;;;;;;;4.64;91.86;103066.03;5001161;28;20184;-48
2022/01/25 11:30:43;;;;;;;30.20;10.45;;;;;;;4.62;91.93;103060.06;5007226;28;20034;-48
2022/01/25 11:33:13;;;;;;;28.08;11.73;;;;;;;4.64;92.00;103061.56;5000839;28;20364;-49
2022/01/25 11:35:40;;;;;;;28.27;11.15;;;;;;;4.66;92.35;103064.06;4998323;28;20030;-47
2022/01/25 11:38:06;;;;;;;28.83;10.65;;;;;;;4.64;92.24;103058.06;5002357;28;20121;-48
2022/01/25 11:40:40;;;;;;;34.72;12.23;;;;;;;4.65;92.22;103059.75;5004089;28;20029;-48
2022/01/25 11:43:11;;;;;;;33.17;11.55;;;;;;;4.64;92.45;103055.41;5005480;28;20030;-47
2022/01/25 11:45:39;;;;;;;31.25;11.77;;;;;;;4.66;92.21;103058.75;4998159;28;20253;-49
2022/01/25 11:48:06;;;;;;;28.73;11.80;;;;;;;4.72;92.62;103058.16;5002703;28;20034;-49
2022/01/25 11:50:37;;;;;;;28.50;12.40;;;;;;;4.70;92.95;103057.50;4998885;28;20637;-48
2022/01/25 11:53:11;;;;;;;31.77;12.45;;;;;;;4.76;92.50;103068.31;5005223;28;20079;-48
2022/01/25 11:55:48;;;;;;;27.92;10.63;;;;;;;4.75;93.00;103050.72;4998928;28;20033;-50
2022/01/25 11:58:25;;;;;;;30.50;10.88;;;;;;;4.82;92.33;103061.56;5001364;28;20502;-47
2022/01/25 12:00:55;;;;;;;30.92;11.88;;;;;;;4.82;92.41;103069.53;5003797;28;20032;-48
2022/01/25 12:03:24;;;;;;;32.88;11.40;;;;;;;4.80;92.30;103058.22;4996387;28;20150;-47
2022/01/25 12:06:31;;;;;;;30.77;12.00;;;;;;;4.78;92.13;103052.22;5003789;28;20214;-49
2022/01/25 12:09:08;;;;;;;31.98;11.98;;;;;;;4.69;92.92;103054.00;5002722;28;20188;-50
2022/01/25 12:11:49;;;;;;;32.67;12.38;;;;;;;4.75;92.82;103052.53;5006665;28;20585;-49
2022/01/25 12:14:26;;;;;;;28.25;12.13;;;;;;;4.75;92.95;103041.91;5000360;28;20036;-51
2022/01/25 12:16:58;;;;;;;26.15;11.20;;;;;;;4.75;93.44;103044.56;4999420;28;20088;-49
2022/01/25 12:19:45;;;;;;;31.88;11.30;;;;;;;4.67;93.59;103048.00;5000833;28;20057;-48
2022/01/25 12:22:37;;;;;;;31.67;12.13;;;;;;;4.75;93.25;103045.41;4999499;28;20084;-50
2022/01/25 12:25:33;;;;;;;29.95;11.43;;;;;;;4.72;93.83;103043.06;5004043;28;20040;-49
2022/01/25 12:28:09;;;;;;;28.50;11.23;;;;;;;4.76;93.29;103040.94;5002854;28;20503;-48
2022/01/25 12:30:39;;;;;;;29.58;11.13;;;;;;;4.82;93.31;103032.34;5003622;28;20084;-47
2022/01/25 12:33:23;;;;;;;25.77;10.95;;;;;;;4.87;93.11;103037.22;5000488;28;20033;-47
2022/01/25 12:36:02;;;;;;;33.33;11.95;;;;;;;4.87;93.16;103040.69;5002109;28;20056;-48
2022/01/25 12:38:44;;;;;;;31.38;12.07;;;;;;;4.81;93.63;103038.63;5000038;28;20092;-47
2022/01/25 12:41:21;;;;;;;30.33;11.60;;;;;;;4.85;92.92;103038.19;5001846;28;20486;-48
2022/01/25 12:43:56;;;;;;;33.75;12.82;;;;;;;4.82;93.43;103033.16;5004413;28;20418;-47
2022/01/25 12:46:25;;;;;;;30.38;11.10;;;;;;;4.82;93.75;103032.34;5003474;28;20075;-48
2022/01/25 12:48:55;;;;;;;32.05;11.85;;;;;;;4.83;94.26;103032.19;5006496;28;20521;-47
2022/01/25 12:51:27;;;;;;;34.35;12.05;;;;;;;4.88;94.09;103022.94;5003634;28;20117;-50
2022/01/25 12:53:56;;;;;;;32.10;11.50;;;;;;;4.92;93.58;103029.59;5005109;28;20403;-48
2022/01/25 12:56:27;;;;;;;30.05;11.27;;;;;;;4.86;93.69;103023.09;5004896;28;20022;-47
2022/01/25 12:58:59;;;;;;;27.60;10.93;;;;;;;4.92;93.61;103021.63;5001401;28;20293;-49
2022/01/25 13:01:26;;;;;;;31.42;11.88;;;;;;;4.94;93.21;103009.84;4999697;28;20396;-48
2022/01/25 13:03:57;;;;;;;29.58;11.40;;;;;;;4.95;93.77;103005.38;5016301;28;20040;-48
2022/01/25 13:06:26;;;;;;;30.30;10.63;;;;;;;4.96;93.51;103004.38;5002519;28;20118;-47
2022/01/25 13:08:59;;;;;;;24.85;10.18;;;;;;;4.99;93.42;103004.91;5003337;28;20038;-48